x

Cape Lookout, Nc (clkn7) Weather Station

8:00pm - Wed 1st Jul 2015 All times are EDT. -4 hours from GMT.

  • Wind
    13mph, 17mph gusts
  • Air Temp 79°f
  • Sea Pressure 1014mb
  • Cape Lookout, Nc
  • Cape Lookout, Nc

More Historic Weather Station data

Upgrade to MSW Pro to gain access to the past 30 days of data for over 8000 Wavebouys and Weather Stations around the globe.

Join Pro

Comparision Forecast

View Surf forecast
   
Wed 07/01 8:00pm 13 17 mph 1014mb 79f
7:00pm 13 16 mph 1013.7mb 79f
6:00pm 16 20 mph 1013.7mb 80f
5:00pm 13 17 mph 1013.5mb 81f
4:00pm 15 20 mph 1014mb 82f
3:00pm 17 20 mph 1014.3mb 82f
2:00pm 14 21 mph 1014.6mb 82f
1:00pm 15 18 mph 1014.9mb 81f
12:00pm 14 17 mph 1015mb 81f
11:00am 13 20 mph 1015.1mb 81f
10:00am 14 17 mph 1015mb 80f
9:00am 17 22 mph 1014.8mb 80f
8:00am 18 22 mph 1014.7mb 80f
7:00am 17 20 mph 1014.3mb 79f
6:00am 17 20 mph 1013.8mb 78f
5:00am 15 21 mph 1013.5mb 80f
4:00am 14 22 mph 1013.8mb 81f
3:00am 16 23 mph 1013.8mb 80f
2:00am 15 22 mph 1013.6mb 80f
1:00am 14 18 mph 1014.3mb 80f
12:00am 15 21 mph 1014.9mb 80f
Tue 06/30 11:00pm 14 20 mph 1014.8mb 81f
10:00pm 17 23 mph 1014.8mb 81f
9:00pm 18 24 mph 1014.1mb 81f
8:00pm 20 23 mph 1013.9mb 81f
7:00pm 15 20 mph 1013.9mb 82f
6:00pm 16 20 mph 1013.5mb 83f
5:00pm 18 23 mph 1013.5mb 83f
4:00pm 16 20 mph 1013.9mb 83f
3:00pm 14 18 mph 1014.7mb 83f
2:00pm 11 16 mph 1015.1mb 84f
1:00pm 10 14 mph 1015.4mb 82f
12:00pm 8 10 mph 1015.6mb 82f
11:00am 11 13 mph 1015.9mb 81f
10:00am 13 16 mph 1015.7mb 81f
9:00am 13 15 mph 1015.8mb 81f
8:00am 10 13 mph 1015.3mb 80f
7:00am 9 11 mph 1015mb 79f
6:00am 11 15 mph 1014.6mb 78f
5:00am 9 13 mph 1014.3mb 79f
4:00am 9 10 mph 1014.2mb 79f
3:00am 7 10 mph 1014mb 79f
2:00am 9 11 mph 1014.2mb 79f
1:00am 7 10 mph 1015mb 79f
12:00am 7 13 mph 1015.3mb 79f
Mon 06/29 11:00pm 9 11 mph 1015mb 79f
10:00pm 9 13 mph 1014.7mb 79f
9:00pm 9 11 mph 1014mb 79f
8:00pm 13 15 mph 1014.2mb 80f
7:00pm 11 15 mph 1013.8mb 81f
6:00pm 10 14 mph 1013.5mb 81f
5:00pm 10 14 mph 1013.7mb 82f
4:00pm 10 13 mph 1014.1mb 79f
3:00pm 7 9 mph 1014.5mb 80f
2:00pm 8 9 mph 1015mb 79f
1:00pm 8 9 mph 1015.2mb 78f
12:00pm 11 13 mph 1015.3mb 78f
11:00am 13 14 mph 1015mb 78f
10:00am 14 15 mph 1015.3mb 77f
9:00am 15 16 mph 1014.8mb 77f
8:00am 11 14 mph 1014.8mb 77f
7:00am 14
mph
1014.4mb 76f
6:00am 11 13 mph 1013.7mb 76f
5:00am 13
mph
1013.5mb 78f
4:00am 5
mph
1013.2mb 77f
3:00am 7 8 mph 1012.9mb 79f
2:00am 6 7 mph 1013.2mb 79f
1:00am 6 7 mph 1013.2mb 79f
12:00am 13 16 mph 1013mb 79f
Sun 06/28 11:00pm 14 17 mph 1013.1mb 80f
10:00pm 14 20 mph 1012.8mb 80f
9:00pm 14 18 mph 1012.4mb 80f
8:00pm 14 20 mph 1012.4mb 80f
7:00pm 14 18 mph 1011.7mb 81f
6:00pm 15 23 mph 1010.8mb 81f
5:00pm 18 25 mph 1010.7mb 82f
4:00pm 18 23 mph 1011mb 82f
3:00pm 16 21 mph 1011mb 83f
2:00pm 14 20 mph 1011mb 83f
1:00pm 16 20 mph 1011mb 82f
12:00pm 15 21 mph 1011.3mb 81f
11:00am 20 23 mph 1011.2mb 81f
10:00am 17 21 mph 1011.1mb 80f
9:00am 22 26 mph 1010.8mb 80f
8:00am 20 26 mph 1010mb 80f
7:00am 20 25 mph 1009.7mb 80f
6:00am 18 22 mph 1009mb 80f
5:00am 21 25 mph 1008.5mb 80f
4:00am 21 31 mph 1008.2mb 81f
3:00am 20 24 mph 1007.8mb 81f
2:00am 13 18 mph 1008.2mb 78f